sensor_id;sensor_type;location;lat;lon;timestamp;P1;durP1;ratioP1;P2;durP2;ratioP2
63280;SDS011;49406;51.044;3.766;2024-03-06T00:00:50;10.80;;;6.20;;
63280;SDS011;49406;51.044;3.766;2024-03-06T00:03:24;11.70;;;5.70;;
63280;SDS011;49406;51.044;3.766;2024-03-06T00:05:59;13.30;;;8.00;;
63280;SDS011;49406;51.044;3.766;2024-03-06T00:08:33;7.20;;;3.50;;
63280;SDS011;49406;51.044;3.766;2024-03-06T00:11:08;9.10;;;5.10;;
63280;SDS011;49406;51.044;3.766;2024-03-06T00:13:43;7.50;;;4.70;;
63280;SDS011;49406;51.044;3.766;2024-03-06T00:16:19;9.90;;;3.90;;
63280;SDS011;49406;51.044;3.766;2024-03-06T00:21:27;11.30;;;3.50;;
63280;SDS011;49406;51.044;3.766;2024-03-06T00:24:01;8.80;;;5.30;;
63280;SDS011;49406;51.044;3.766;2024-03-06T00:26:36;6.70;;;4.50;;
63280;SDS011;49406;51.044;3.766;2024-03-06T00:29:11;6.80;;;3.70;;
63280;SDS011;49406;51.044;3.766;2024-03-06T00:31:46;21.80;;;5.00;;
63280;SDS011;49406;51.044;3.766;2024-03-06T00:34:21;11.30;;;5.30;;
63280;SDS011;49406;51.044;3.766;2024-03-06T00:36:55;12.50;;;5.80;;
63280;SDS011;49406;51.044;3.766;2024-03-06T00:39:30;12.80;;;6.00;;
63280;SDS011;49406;51.044;3.766;2024-03-06T00:42:04;5.80;;;3.10;;
63280;SDS011;49406;51.044;3.766;2024-03-06T00:44:40;14.60;;;6.00;;
63280;SDS011;49406;51.044;3.766;2024-03-06T00:47:15;10.50;;;4.80;;
63280;SDS011;49406;51.044;3.766;2024-03-06T00:49:49;8.20;;;5.30;;
63280;SDS011;49406;51.044;3.766;2024-03-06T00:52:24;8.70;;;5.60;;
63280;SDS011;49406;51.044;3.766;2024-03-06T00:54:58;8.60;;;6.00;;
63280;SDS011;49406;51.044;3.766;2024-03-06T00:57:33;8.00;;;5.10;;
63280;SDS011;49406;51.044;3.766;2024-03-06T01:00:08;8.10;;;4.20;;
63280;SDS011;49406;51.044;3.766;2024-03-06T01:02:44;8.70;;;4.90;;
63280;SDS011;49406;51.044;3.766;2024-03-06T01:05:19;8.00;;;5.50;;
63280;SDS011;49406;51.044;3.766;2024-03-06T01:07:54;9.60;;;4.50;;
63280;SDS011;49406;51.044;3.766;2024-03-06T01:10:30;7.30;;;3.40;;
63280;SDS011;49406;51.044;3.766;2024-03-06T01:13:05;5.20;;;3.00;;
63280;SDS011;49406;51.044;3.766;2024-03-06T01:15:42;9.60;;;4.50;;
63280;SDS011;49406;51.044;3.766;2024-03-06T01:18:16;10.60;;;5.50;;
63280;SDS011;49406;51.044;3.766;2024-03-06T01:20:51;13.00;;;6.80;;
63280;SDS011;49406;51.044;3.766;2024-03-06T01:23:26;19.90;;;10.90;;
63280;SDS011;49406;51.044;3.766;2024-03-06T01:26:00;18.80;;;9.20;;
63280;SDS011;49406;51.044;3.766;2024-03-06T01:28:35;9.10;;;6.60;;
63280;SDS011;49406;51.044;3.766;2024-03-06T01:31:10;15.20;;;7.10;;
63280;SDS011;49406;51.044;3.766;2024-03-06T01:33:44;18.80;;;6.10;;
63280;SDS011;49406;51.044;3.766;2024-03-06T01:36:19;12.40;;;6.00;;
63280;SDS011;49406;51.044;3.766;2024-03-06T01:38:53;10.20;;;5.60;;
63280;SDS011;49406;51.044;3.766;2024-03-06T01:41:28;9.00;;;5.60;;
63280;SDS011;49406;51.044;3.766;2024-03-06T01:44:02;7.10;;;4.00;;
63280;SDS011;49406;51.044;3.766;2024-03-06T01:46:37;2.90;;;2.50;;
63280;SDS011;49406;51.044;3.766;2024-03-06T01:49:12;6.40;;;3.50;;
63280;SDS011;49406;51.044;3.766;2024-03-06T01:51:49;7.10;;;3.60;;
63280;SDS011;49406;51.044;3.766;2024-03-06T01:54:25;8.80;;;6.10;;
63280;SDS011;49406;51.044;3.766;2024-03-06T01:57:00;5.50;;;3.80;;
63280;SDS011;49406;51.044;3.766;2024-03-06T01:59:36;9.20;;;4.20;;
63280;SDS011;49406;51.044;3.766;2024-03-06T02:02:10;16.70;;;8.20;;
63280;SDS011;49406;51.044;3.766;2024-03-06T02:04:45;14.90;;;7.50;;
63280;SDS011;49406;51.044;3.766;2024-03-06T02:07:20;18.00;;;9.00;;
63280;SDS011;49406;51.044;3.766;2024-03-06T02:09:56;25.60;;;11.30;;
63280;SDS011;49406;51.044;3.766;2024-03-06T02:12:31;23.60;;;12.20;;
63280;SDS011;49406;51.044;3.766;2024-03-06T02:15:06;27.80;;;9.50;;
63280;SDS011;49406;51.044;3.766;2024-03-06T02:17:44;19.10;;;9.70;;
63280;SDS011;49406;51.044;3.766;2024-03-06T02:20:21;25.00;;;10.10;;
63280;SDS011;49406;51.044;3.766;2024-03-06T02:22:56;20.60;;;9.30;;
63280;SDS011;49406;51.044;3.766;2024-03-06T02:25:31;17.50;;;7.60;;
63280;SDS011;49406;51.044;3.766;2024-03-06T02:28:05;5.10;;;4.10;;
63280;SDS011;49406;51.044;3.766;2024-03-06T02:30:40;7.30;;;4.70;;
63280;SDS011;49406;51.044;3.766;2024-03-06T02:33:15;13.00;;;3.60;;
63280;SDS011;49406;51.044;3.766;2024-03-06T02:38:23;8.10;;;3.70;;
63280;SDS011;49406;51.044;3.766;2024-03-06T02:40:58;13.30;;;4.80;;
63280;SDS011;49406;51.044;3.766;2024-03-06T02:43:32;10.60;;;5.20;;
63280;SDS011;49406;51.044;3.766;2024-03-06T02:46:07;24.80;;;10.50;;
63280;SDS011;49406;51.044;3.766;2024-03-06T02:48:42;24.80;;;9.50;;
63280;SDS011;49406;51.044;3.766;2024-03-06T02:51:19;19.90;;;9.80;;
63280;SDS011;49406;51.044;3.766;2024-03-06T02:53:53;27.80;;;10.80;;
63280;SDS011;49406;51.044;3.766;2024-03-06T02:56:28;26.40;;;9.30;;
63280;SDS011;49406;51.044;3.766;2024-03-06T02:59:02;22.70;;;9.70;;
63280;SDS011;49406;51.044;3.766;2024-03-06T03:01:37;25.60;;;12.90;;
63280;SDS011;49406;51.044;3.766;2024-03-06T03:04:11;17.90;;;6.70;;
63280;SDS011;49406;51.044;3.766;2024-03-06T03:06:46;17.90;;;9.70;;
63280;SDS011;49406;51.044;3.766;2024-03-06T03:09:20;17.90;;;7.60;;
63280;SDS011;49406;51.044;3.766;2024-03-06T03:11:55;8.30;;;5.80;;
63280;SDS011;49406;51.044;3.766;2024-03-06T03:14:30;8.60;;;4.70;;
63280;SDS011;49406;51.044;3.766;2024-03-06T03:17:05;7.80;;;5.60;;
63280;SDS011;49406;51.044;3.766;2024-03-06T03:19:40;4.70;;;2.70;;
63280;SDS011;49406;51.044;3.766;2024-03-06T03:22:14;8.80;;;5.00;;
63280;SDS011;49406;51.044;3.766;2024-03-06T03:24:51;11.20;;;5.20;;
63280;SDS011;49406;51.044;3.766;2024-03-06T03:27:26;12.70;;;7.00;;
63280;SDS011;49406;51.044;3.766;2024-03-06T03:30:00;16.40;;;8.30;;
63280;SDS011;49406;51.044;3.766;2024-03-06T03:35:10;30.20;;;10.50;;
63280;SDS011;49406;51.044;3.766;2024-03-06T03:37:44;13.20;;;7.90;;
63280;SDS011;49406;51.044;3.766;2024-03-06T03:40:19;30.60;;;14.20;;
63280;SDS011;49406;51.044;3.766;2024-03-06T03:42:54;22.50;;;9.70;;
63280;SDS011;49406;51.044;3.766;2024-03-06T03:45:29;22.80;;;10.10;;
63280;SDS011;49406;51.044;3.766;2024-03-06T03:48:04;12.30;;;7.80;;
63280;SDS011;49406;51.044;3.766;2024-03-06T03:50:39;6.90;;;3.20;;
63280;SDS011;49406;51.044;3.766;2024-03-06T03:53:14;5.40;;;3.50;;
63280;SDS011;49406;51.044;3.766;2024-03-06T03:55:49;8.90;;;4.60;;
63280;SDS011;49406;51.044;3.766;2024-03-06T03:58:23;14.80;;;7.30;;
63280;SDS011;49406;51.044;3.766;2024-03-06T04:00:58;17.40;;;8.70;;
63280;SDS011;49406;51.044;3.766;2024-03-06T04:03:32;11.00;;;6.70;;
63280;SDS011;49406;51.044;3.766;2024-03-06T04:06:07;19.20;;;9.60;;
63280;SDS011;49406;51.044;3.766;2024-03-06T04:08:42;20.00;;;8.80;;
63280;SDS011;49406;51.044;3.766;2024-03-06T04:11:17;30.40;;;10.70;;
63280;SDS011;49406;51.044;3.766;2024-03-06T04:16:24;26.10;;;8.10;;
63280;SDS011;49406;51.044;3.766;2024-03-06T04:18:59;16.00;;;8.20;;
63280;SDS011;49406;51.044;3.766;2024-03-06T04:21:35;10.80;;;6.20;;
63280;SDS011;49406;51.044;3.766;2024-03-06T04:24:15;9.00;;;4.70;;
63280;SDS011;49406;51.044;3.766;2024-03-06T04:26:49;5.50;;;3.80;;
63280;SDS011;49406;51.044;3.766;2024-03-06T04:29:24;3.60;;;3.30;;
63280;SDS011;49406;51.044;3.766;2024-03-06T04:31:58;8.40;;;4.10;;
63280;SDS011;49406;51.044;3.766;2024-03-06T04:34:34;4.80;;;4.40;;
63280;SDS011;49406;51.044;3.766;2024-03-06T04:37:08;12.90;;;4.70;;
63280;SDS011;49406;51.044;3.766;2024-03-06T04:39:43;21.20;;;6.80;;
63280;SDS011;49406;51.044;3.766;2024-03-06T04:42:18;24.60;;;8.70;;
63280;SDS011;49406;51.044;3.766;2024-03-06T04:44:53;15.80;;;7.60;;
63280;SDS011;49406;51.044;3.766;2024-03-06T04:47:28;27.00;;;10.50;;
63280;SDS011;49406;51.044;3.766;2024-03-06T04:50:03;20.80;;;8.50;;
63280;SDS011;49406;51.044;3.766;2024-03-06T04:52:40;43.30;;;16.20;;
63280;SDS011;49406;51.044;3.766;2024-03-06T04:55:16;38.70;;;14.80;;
63280;SDS011;49406;51.044;3.766;2024-03-06T04:57:54;36.60;;;14.40;;
63280;SDS011;49406;51.044;3.766;2024-03-06T05:00:28;28.10;;;11.10;;
63280;SDS011;49406;51.044;3.766;2024-03-06T05:03:03;25.80;;;7.30;;
63280;SDS011;49406;51.044;3.766;2024-03-06T05:05:38;15.30;;;9.00;;
63280;SDS011;49406;51.044;3.766;2024-03-06T05:08:14;24.90;;;9.60;;
63280;SDS011;49406;51.044;3.766;2024-03-06T05:10:48;19.60;;;9.50;;
63280;SDS011;49406;51.044;3.766;2024-03-06T05:13:23;22.60;;;10.00;;
63280;SDS011;49406;51.044;3.766;2024-03-06T05:15:58;17.20;;;9.00;;
63280;SDS011;49406;51.044;3.766;2024-03-06T05:18:32;22.90;;;9.40;;
63280;SDS011;49406;51.044;3.766;2024-03-06T05:21:08;16.20;;;8.50;;
63280;SDS011;49406;51.044;3.766;2024-03-06T05:23:43;29.10;;;10.60;;
63280;SDS011;49406;51.044;3.766;2024-03-06T05:26:17;17.80;;;9.90;;
63280;SDS011;49406;51.044;3.766;2024-03-06T05:28:52;14.10;;;8.20;;
63280;SDS011;49406;51.044;3.766;2024-03-06T05:31:26;9.50;;;6.00;;
63280;SDS011;49406;51.044;3.766;2024-03-06T05:34:01;8.80;;;4.00;;
63280;SDS011;49406;51.044;3.766;2024-03-06T05:36:37;2.30;;;1.30;;
63280;SDS011;49406;51.044;3.766;2024-03-06T05:39:11;3.10;;;1.30;;
63280;SDS011;49406;51.044;3.766;2024-03-06T05:41:47;3.90;;;1.30;;
63280;SDS011;49406;51.044;3.766;2024-03-06T05:44:21;10.60;;;4.90;;
63280;SDS011;49406;51.044;3.766;2024-03-06T05:46:56;21.70;;;8.30;;
63280;SDS011;49406;51.044;3.766;2024-03-06T05:49:31;26.60;;;10.60;;
63280;SDS011;49406;51.044;3.766;2024-03-06T05:52:06;37.80;;;12.00;;
63280;SDS011;49406;51.044;3.766;2024-03-06T05:54:40;22.10;;;9.90;;
63280;SDS011;49406;51.044;3.766;2024-03-06T05:57:15;26.40;;;11.60;;
63280;SDS011;49406;51.044;3.766;2024-03-06T05:59:49;38.90;;;12.00;;
63280;SDS011;49406;51.044;3.766;2024-03-06T06:02:24;19.00;;;9.50;;
63280;SDS011;49406;51.044;3.766;2024-03-06T06:04:59;19.20;;;11.20;;
63280;SDS011;49406;51.044;3.766;2024-03-06T06:07:33;18.60;;;10.00;;
63280;SDS011;49406;51.044;3.766;2024-03-06T06:10:09;19.00;;;9.50;;
63280;SDS011;49406;51.044;3.766;2024-03-06T06:12:44;26.70;;;7.20;;
63280;SDS011;49406;51.044;3.766;2024-03-06T06:15:18;12.30;;;5.50;;
63280;SDS011;49406;51.044;3.766;2024-03-06T06:17:54;7.90;;;4.60;;
63280;SDS011;49406;51.044;3.766;2024-03-06T06:20:28;6.60;;;3.80;;
63280;SDS011;49406;51.044;3.766;2024-03-06T06:23:03;14.70;;;7.20;;
63280;SDS011;49406;51.044;3.766;2024-03-06T06:25:38;27.50;;;9.10;;
63280;SDS011;49406;51.044;3.766;2024-03-06T06:28:13;14.70;;;8.30;;
63280;SDS011;49406;51.044;3.766;2024-03-06T06:30:47;24.90;;;11.60;;
63280;SDS011;49406;51.044;3.766;2024-03-06T06:33:23;26.00;;;12.00;;
63280;SDS011;49406;51.044;3.766;2024-03-06T06:35:58;25.10;;;10.10;;
63280;SDS011;49406;51.044;3.766;2024-03-06T06:38:33;49.10;;;16.10;;
63280;SDS011;49406;51.044;3.766;2024-03-06T06:41:07;29.40;;;13.40;;
63280;SDS011;49406;51.044;3.766;2024-03-06T06:43:42;27.30;;;9.30;;
63280;SDS011;49406;51.044;3.766;2024-03-06T06:46:17;22.40;;;11.40;;
63280;SDS011;49406;51.044;3.766;2024-03-06T06:48:52;23.60;;;12.80;;
63280;SDS011;49406;51.044;3.766;2024-03-06T06:51:27;21.50;;;8.30;;
63280;SDS011;49406;51.044;3.766;2024-03-06T06:54:01;19.40;;;11.50;;
63280;SDS011;49406;51.044;3.766;2024-03-06T06:56:37;31.70;;;9.00;;
63280;SDS011;49406;51.044;3.766;2024-03-06T06:59:12;19.30;;;10.90;;
63280;SDS011;49406;51.044;3.766;2024-03-06T07:01:46;27.20;;;11.40;;
63280;SDS011;49406;51.044;3.766;2024-03-06T07:04:21;33.30;;;12.70;;
63280;SDS011;49406;51.044;3.766;2024-03-06T07:06:56;28.30;;;11.70;;
63280;SDS011;49406;51.044;3.766;2024-03-06T07:09:30;25.20;;;12.60;;
63280;SDS011;49406;51.044;3.766;2024-03-06T07:12:05;28.90;;;14.50;;
63280;SDS011;49406;51.044;3.766;2024-03-06T07:14:40;16.20;;;7.90;;
63280;SDS011;49406;51.044;3.766;2024-03-06T07:17:15;10.00;;;6.10;;
63280;SDS011;49406;51.044;3.766;2024-03-06T07:19:49;10.00;;;6.00;;
63280;SDS011;49406;51.044;3.766;2024-03-06T07:22:24;6.30;;;4.90;;
63280;SDS011;49406;51.044;3.766;2024-03-06T07:24:59;8.30;;;4.00;;
63280;SDS011;49406;51.044;3.766;2024-03-06T07:27:34;9.50;;;5.00;;
63280;SDS011;49406;51.044;3.766;2024-03-06T07:30:09;17.60;;;6.80;;
63280;SDS011;49406;51.044;3.766;2024-03-06T07:32:45;10.00;;;6.70;;
63280;SDS011;49406;51.044;3.766;2024-03-06T07:35:20;14.00;;;6.80;;
63280;SDS011;49406;51.044;3.766;2024-03-06T07:37:54;11.70;;;7.20;;
63280;SDS011;49406;51.044;3.766;2024-03-06T07:40:29;12.50;;;7.10;;
63280;SDS011;49406;51.044;3.766;2024-03-06T07:43:04;13.10;;;5.00;;
63280;SDS011;49406;51.044;3.766;2024-03-06T07:45:38;8.80;;;5.20;;
63280;SDS011;49406;51.044;3.766;2024-03-06T07:48:13;11.50;;;4.80;;
63280;SDS011;49406;51.044;3.766;2024-03-06T07:50:47;9.50;;;4.40;;
63280;SDS011;49406;51.044;3.766;2024-03-06T07:53:22;10.70;;;6.00;;
63280;SDS011;49406;51.044;3.766;2024-03-06T07:55:57;6.10;;;4.00;;
63280;SDS011;49406;51.044;3.766;2024-03-06T07:58:31;7.10;;;3.20;;
63280;SDS011;49406;51.044;3.766;2024-03-06T08:01:06;13.40;;;7.40;;
63280;SDS011;49406;51.044;3.766;2024-03-06T08:03:40;15.40;;;9.00;;
63280;SDS011;49406;51.044;3.766;2024-03-06T08:06:15;15.70;;;8.40;;
63280;SDS011;49406;51.044;3.766;2024-03-06T08:08:51;15.90;;;9.20;;
63280;SDS011;49406;51.044;3.766;2024-03-06T08:11:25;26.60;;;9.70;;
63280;SDS011;49406;51.044;3.766;2024-03-06T08:14:00;24.20;;;5.90;;
63280;SDS011;49406;51.044;3.766;2024-03-06T08:16:35;20.80;;;10.80;;
63280;SDS011;49406;51.044;3.766;2024-03-06T08:19:10;18.40;;;6.90;;
63280;SDS011;49406;51.044;3.766;2024-03-06T08:21:45;18.20;;;7.10;;
63280;SDS011;49406;51.044;3.766;2024-03-06T08:24:19;20.40;;;7.60;;
63280;SDS011;49406;51.044;3.766;2024-03-06T08:26:54;26.40;;;6.90;;
63280;SDS011;49406;51.044;3.766;2024-03-06T08:29:29;13.20;;;4.00;;
63280;SDS011;49406;51.044;3.766;2024-03-06T08:32:04;3.70;;;1.60;;
63280;SDS011;49406;51.044;3.766;2024-03-06T08:34:39;17.80;;;7.60;;
63280;SDS011;49406;51.044;3.766;2024-03-06T08:37:14;13.70;;;3.50;;
63280;SDS011;49406;51.044;3.766;2024-03-06T08:39:49;18.30;;;5.00;;
63280;SDS011;49406;51.044;3.766;2024-03-06T08:42:24;21.80;;;8.90;;
63280;SDS011;49406;51.044;3.766;2024-03-06T08:44:58;21.50;;;6.30;;
63280;SDS011;49406;51.044;3.766;2024-03-06T08:47:33;9.40;;;3.90;;
63280;SDS011;49406;51.044;3.766;2024-03-06T08:50:08;26.10;;;9.70;;
63280;SDS011;49406;51.044;3.766;2024-03-06T08:52:44;16.60;;;7.90;;
63280;SDS011;49406;51.044;3.766;2024-03-06T08:55:19;15.90;;;5.20;;
63280;SDS011;49406;51.044;3.766;2024-03-06T08:57:53;7.50;;;3.50;;
63280;SDS011;49406;51.044;3.766;2024-03-06T09:00:28;8.20;;;2.60;;
63280;SDS011;49406;51.044;3.766;2024-03-06T09:03:03;39.00;;;10.90;;
63280;SDS011;49406;51.044;3.766;2024-03-06T09:05:37;16.00;;;5.90;;
63280;SDS011;49406;51.044;3.766;2024-03-06T09:08:12;24.60;;;9.00;;
63280;SDS011;49406;51.044;3.766;2024-03-06T09:10:47;15.10;;;7.40;;
63280;SDS011;49406;51.044;3.766;2024-03-06T09:13:21;20.10;;;6.60;;
63280;SDS011;49406;51.044;3.766;2024-03-06T09:15:56;11.50;;;4.50;;
63280;SDS011;49406;51.044;3.766;2024-03-06T09:18:31;29.70;;;6.10;;
63280;SDS011;49406;51.044;3.766;2024-03-06T09:21:06;17.50;;;6.20;;
63280;SDS011;49406;51.044;3.766;2024-03-06T09:23:40;21.60;;;8.30;;
63280;SDS011;49406;51.044;3.766;2024-03-06T09:26:15;9.20;;;3.40;;
63280;SDS011;49406;51.044;3.766;2024-03-06T09:28:50;21.10;;;5.10;;
63280;SDS011;49406;51.044;3.766;2024-03-06T09:31:24;21.60;;;8.40;;
63280;SDS011;49406;51.044;3.766;2024-03-06T09:33:59;7.60;;;4.90;;
63280;SDS011;49406;51.044;3.766;2024-03-06T09:36:33;27.70;;;9.10;;
63280;SDS011;49406;51.044;3.766;2024-03-06T09:39:08;16.40;;;8.90;;
63280;SDS011;49406;51.044;3.766;2024-03-06T09:41:42;28.00;;;10.40;;
63280;SDS011;49406;51.044;3.766;2024-03-06T09:44:17;10.40;;;4.20;;
63280;SDS011;49406;51.044;3.766;2024-03-06T09:46:53;7.70;;;3.50;;
63280;SDS011;49406;51.044;3.766;2024-03-06T09:49:32;22.00;;;6.30;;
63280;SDS011;49406;51.044;3.766;2024-03-06T09:52:07;14.30;;;6.20;;
63280;SDS011;49406;51.044;3.766;2024-03-06T09:54:43;9.90;;;4.80;;
63280;SDS011;49406;51.044;3.766;2024-03-06T09:57:17;18.50;;;6.70;;
63280;SDS011;49406;51.044;3.766;2024-03-06T09:59:52;9.80;;;6.00;;
63280;SDS011;49406;51.044;3.766;2024-03-06T10:02:30;14.20;;;8.70;;
63280;SDS011;49406;51.044;3.766;2024-03-06T10:05:21;18.80;;;7.60;;
63280;SDS011;49406;51.044;3.766;2024-03-06T10:07:56;18.30;;;9.40;;
63280;SDS011;49406;51.044;3.766;2024-03-06T10:10:31;14.10;;;7.60;;
63280;SDS011;49406;51.044;3.766;2024-03-06T10:13:06;13.20;;;7.00;;
63280;SDS011;49406;51.044;3.766;2024-03-06T10:15:41;8.60;;;4.00;;
63280;SDS011;49406;51.044;3.766;2024-03-06T10:18:27;17.40;;;8.60;;
63280;SDS011;49406;51.044;3.766;2024-03-06T10:21:04;11.30;;;7.30;;
63280;SDS011;49406;51.044;3.766;2024-03-06T10:23:38;11.10;;;7.40;;
63280;SDS011;49406;51.044;3.766;2024-03-06T10:26:13;8.80;;;4.60;;
63280;SDS011;49406;51.044;3.766;2024-03-06T10:28:48;17.00;;;7.80;;
63280;SDS011;49406;51.044;3.766;2024-03-06T10:34:01;13.80;;;6.30;;
63280;SDS011;49406;51.044;3.766;2024-03-06T10:39:09;11.30;;;5.90;;
63280;SDS011;49406;51.044;3.766;2024-03-06T10:41:46;14.20;;;4.40;;
63280;SDS011;49406;51.044;3.766;2024-03-06T10:44:24;15.60;;;8.00;;
63280;SDS011;49406;51.044;3.766;2024-03-06T10:47:00;16.20;;;7.80;;
63280;SDS011;49406;51.044;3.766;2024-03-06T10:49:36;11.90;;;7.00;;
63280;SDS011;49406;51.044;3.766;2024-03-06T10:52:14;14.50;;;7.40;;
63280;SDS011;49406;51.044;3.766;2024-03-06T10:54:51;10.30;;;4.60;;
63280;SDS011;49406;51.044;3.766;2024-03-06T10:57:28;7.20;;;4.10;;
63280;SDS011;49406;51.044;3.766;2024-03-06T11:00:06;16.60;;;6.50;;
63280;SDS011;49406;51.044;3.766;2024-03-06T11:02:42;11.90;;;5.00;;
63280;SDS011;49406;51.044;3.766;2024-03-06T11:05:21;13.10;;;7.00;;
63280;SDS011;49406;51.044;3.766;2024-03-06T11:07:55;14.10;;;5.60;;
63280;SDS011;49406;51.044;3.766;2024-03-06T11:10:32;18.90;;;8.20;;
63280;SDS011;49406;51.044;3.766;2024-03-06T11:13:10;12.60;;;6.20;;
63280;SDS011;49406;51.044;3.766;2024-03-06T11:15:57;8.40;;;5.40;;
63280;SDS011;49406;51.044;3.766;2024-03-06T11:18:45;14.40;;;6.60;;
63280;SDS011;49406;51.044;3.766;2024-03-06T11:21:31;16.90;;;8.70;;
63280;SDS011;49406;51.044;3.766;2024-03-06T11:24:15;16.60;;;8.40;;
63280;SDS011;49406;51.044;3.766;2024-03-06T11:26:55;22.10;;;7.50;;
63280;SDS011;49406;51.044;3.766;2024-03-06T11:32:58;11.00;;;6.00;;
63280;SDS011;49406;51.044;3.766;2024-03-06T11:35:33;12.20;;;6.40;;
63280;SDS011;49406;51.044;3.766;2024-03-06T11:38:09;11.50;;;5.30;;
63280;SDS011;49406;51.044;3.766;2024-03-06T11:40:44;11.50;;;6.40;;
63280;SDS011;49406;51.044;3.766;2024-03-06T11:43:24;9.50;;;5.10;;
63280;SDS011;49406;51.044;3.766;2024-03-06T11:46:08;11.20;;;5.90;;
63280;SDS011;49406;51.044;3.766;2024-03-06T11:48:43;11.00;;;4.10;;
63280;SDS011;49406;51.044;3.766;2024-03-06T11:51:26;13.60;;;5.00;;
63280;SDS011;49406;51.044;3.766;2024-03-06T11:54:02;9.10;;;5.30;;
63280;SDS011;49406;51.044;3.766;2024-03-06T11:56:40;11.80;;;6.50;;
63280;SDS011;49406;51.044;3.766;2024-03-06T11:59:17;7.70;;;3.50;;
63280;SDS011;49406;51.044;3.766;2024-03-06T12:01:53;10.20;;;4.00;;
63280;SDS011;49406;51.044;3.766;2024-03-06T12:04:29;9.50;;;5.70;;
63280;SDS011;49406;51.044;3.766;2024-03-06T12:07:05;6.90;;;4.10;;
63280;SDS011;49406;51.044;3.766;2024-03-06T12:09:40;5.80;;;3.20;;
63280;SDS011;49406;51.044;3.766;2024-03-06T12:14:56;5.30;;;3.30;;
63280;SDS011;49406;51.044;3.766;2024-03-06T12:17:32;4.90;;;3.10;;
63280;SDS011;49406;51.044;3.766;2024-03-06T12:20:17;10.10;;;3.90;;
63280;SDS011;49406;51.044;3.766;2024-03-06T12:22:52;5.00;;;2.50;;
63280;SDS011;49406;51.044;3.766;2024-03-06T12:25:27;3.70;;;2.00;;
63280;SDS011;49406;51.044;3.766;2024-03-06T12:28:07;9.20;;;5.20;;
63280;SDS011;49406;51.044;3.766;2024-03-06T12:30:42;4.30;;;2.20;;
63280;SDS011;49406;51.044;3.766;2024-03-06T12:33:17;7.60;;;5.30;;
63280;SDS011;49406;51.044;3.766;2024-03-06T12:36:00;5.40;;;3.50;;
63280;SDS011;49406;51.044;3.766;2024-03-06T12:38:41;7.40;;;3.30;;
63280;SDS011;49406;51.044;3.766;2024-03-06T12:41:16;6.10;;;4.00;;
63280;SDS011;49406;51.044;3.766;2024-03-06T12:43:50;4.00;;;3.00;;
63280;SDS011;49406;51.044;3.766;2024-03-06T12:46:25;12.60;;;5.20;;
63280;SDS011;49406;51.044;3.766;2024-03-06T12:49:01;6.80;;;4.50;;
63280;SDS011;49406;51.044;3.766;2024-03-06T12:51:36;10.00;;;4.90;;
63280;SDS011;49406;51.044;3.766;2024-03-06T12:54:12;5.70;;;3.60;;
63280;SDS011;49406;51.044;3.766;2024-03-06T12:56:46;4.10;;;2.90;;
63280;SDS011;49406;51.044;3.766;2024-03-06T12:59:21;4.80;;;3.10;;
63280;SDS011;49406;51.044;3.766;2024-03-06T13:01:56;4.20;;;2.60;;
63280;SDS011;49406;51.044;3.766;2024-03-06T13:04:30;8.00;;;3.30;;
63280;SDS011;49406;51.044;3.766;2024-03-06T13:07:05;7.10;;;4.50;;
63280;SDS011;49406;51.044;3.766;2024-03-06T13:09:39;3.20;;;2.90;;
63280;SDS011;49406;51.044;3.766;2024-03-06T13:12:14;3.20;;;2.50;;
63280;SDS011;49406;51.044;3.766;2024-03-06T13:14:48;4.40;;;3.30;;
63280;SDS011;49406;51.044;3.766;2024-03-06T13:17:23;7.60;;;3.00;;
63280;SDS011;49406;51.044;3.766;2024-03-06T13:19:58;3.60;;;3.00;;
63280;SDS011;49406;51.044;3.766;2024-03-06T13:22:33;3.40;;;2.60;;
63280;SDS011;49406;51.044;3.766;2024-03-06T13:25:08;8.30;;;4.20;;
63280;SDS011;49406;51.044;3.766;2024-03-06T13:27:42;4.20;;;2.90;;
63280;SDS011;49406;51.044;3.766;2024-03-06T13:30:17;4.00;;;2.80;;
63280;SDS011;49406;51.044;3.766;2024-03-06T13:32:51;4.70;;;3.00;;
63280;SDS011;49406;51.044;3.766;2024-03-06T13:35:26;5.20;;;3.20;;
63280;SDS011;49406;51.044;3.766;2024-03-06T13:38:01;4.20;;;3.10;;
63280;SDS011;49406;51.044;3.766;2024-03-06T13:40:36;1.80;;;1.30;;
63280;SDS011;49406;51.044;3.766;2024-03-06T13:43:11;9.80;;;4.60;;
63280;SDS011;49406;51.044;3.766;2024-03-06T13:45:49;5.80;;;2.00;;
63280;SDS011;49406;51.044;3.766;2024-03-06T13:48:24;1.80;;;1.30;;
63280;SDS011;49406;51.044;3.766;2024-03-06T13:50:59;5.50;;;3.80;;
63280;SDS011;49406;51.044;3.766;2024-03-06T13:53:33;5.10;;;2.90;;
63280;SDS011;49406;51.044;3.766;2024-03-06T13:56:08;4.50;;;3.40;;
63280;SDS011;49406;51.044;3.766;2024-03-06T13:58:42;4.00;;;3.20;;
63280;SDS011;49406;51.044;3.766;2024-03-06T14:01:17;3.40;;;2.40;;
63280;SDS011;49406;51.044;3.766;2024-03-06T14:06:24;2.30;;;1.60;;
63280;SDS011;49406;51.044;3.766;2024-03-06T14:08:59;7.90;;;4.30;;
63280;SDS011;49406;51.044;3.766;2024-03-06T14:11:33;7.80;;;5.70;;
63280;SDS011;49406;51.044;3.766;2024-03-06T14:14:08;8.80;;;4.40;;
63280;SDS011;49406;51.044;3.766;2024-03-06T14:16:43;4.50;;;3.30;;
63280;SDS011;49406;51.044;3.766;2024-03-06T14:19:18;5.70;;;3.20;;
63280;SDS011;49406;51.044;3.766;2024-03-06T14:21:54;5.90;;;2.80;;
63280;SDS011;49406;51.044;3.766;2024-03-06T14:24:28;5.40;;;3.50;;
63280;SDS011;49406;51.044;3.766;2024-03-06T14:29:37;4.90;;;3.10;;
63280;SDS011;49406;51.044;3.766;2024-03-06T14:32:11;2.20;;;1.60;;
63280;SDS011;49406;51.044;3.766;2024-03-06T14:34:46;5.00;;;3.00;;
63280;SDS011;49406;51.044;3.766;2024-03-06T14:37:22;3.20;;;1.70;;
63280;SDS011;49406;51.044;3.766;2024-03-06T14:39:57;2.30;;;1.20;;
63280;SDS011;49406;51.044;3.766;2024-03-06T14:42:31;5.40;;;3.90;;
63280;SDS011;49406;51.044;3.766;2024-03-06T14:45:06;4.30;;;2.50;;
63280;SDS011;49406;51.044;3.766;2024-03-06T14:47:42;2.90;;;2.10;;
63280;SDS011;49406;51.044;3.766;2024-03-06T14:50:16;3.20;;;2.70;;
63280;SDS011;49406;51.044;3.766;2024-03-06T14:52:51;3.20;;;1.80;;
63280;SDS011;49406;51.044;3.766;2024-03-06T14:55:25;2.20;;;1.50;;
63280;SDS011;49406;51.044;3.766;2024-03-06T14:58:00;3.60;;;1.90;;
63280;SDS011;49406;51.044;3.766;2024-03-06T15:00:35;3.40;;;2.90;;
63280;SDS011;49406;51.044;3.766;2024-03-06T15:03:09;3.50;;;2.80;;
63280;SDS011;49406;51.044;3.766;2024-03-06T15:05:44;2.70;;;2.00;;
63280;SDS011;49406;51.044;3.766;2024-03-06T15:08:19;2.80;;;1.70;;
63280;SDS011;49406;51.044;3.766;2024-03-06T15:10:53;3.70;;;2.70;;
63280;SDS011;49406;51.044;3.766;2024-03-06T15:13:29;13.20;;;2.50;;
63280;SDS011;49406;51.044;3.766;2024-03-06T15:16:03;3.30;;;1.70;;
63280;SDS011;49406;51.044;3.766;2024-03-06T15:18:39;3.60;;;2.50;;
63280;SDS011;49406;51.044;3.766;2024-03-06T15:21:15;2.40;;;1.30;;
63280;SDS011;49406;51.044;3.766;2024-03-06T15:23:50;1.90;;;1.30;;
63280;SDS011;49406;51.044;3.766;2024-03-06T15:26:25;3.10;;;1.40;;
63280;SDS011;49406;51.044;3.766;2024-03-06T15:29:00;4.40;;;2.30;;
63280;SDS011;49406;51.044;3.766;2024-03-06T15:31:36;3.80;;;1.80;;
63280;SDS011;49406;51.044;3.766;2024-03-06T15:34:11;3.20;;;2.00;;
63280;SDS011;49406;51.044;3.766;2024-03-06T15:36:45;2.20;;;1.40;;
63280;SDS011;49406;51.044;3.766;2024-03-06T15:39:20;1.80;;;0.90;;
63280;SDS011;49406;51.044;3.766;2024-03-06T15:41:55;7.90;;;1.20;;
63280;SDS011;49406;51.044;3.766;2024-03-06T15:44:29;3.70;;;1.80;;
63280;SDS011;49406;51.044;3.766;2024-03-06T15:47:04;1.60;;;1.20;;
63280;SDS011;49406;51.044;3.766;2024-03-06T15:49:39;2.90;;;1.60;;
63280;SDS011;49406;51.044;3.766;2024-03-06T15:52:15;2.00;;;1.10;;